createdAt,value
2018-12-08T00:00:29.328Z,7.10
2018-12-08T00:03:01.101Z,7.20
2018-12-08T00:05:38.873Z,7.10
2018-12-08T00:08:17.485Z,7.10
2018-12-08T00:10:48.900Z,7.10
2018-12-08T00:13:20.294Z,7.10
2018-12-08T00:15:51.847Z,7.10
2018-12-08T00:18:23.969Z,7.00
2018-12-08T00:26:56.275Z,7.00
2018-12-08T00:29:30.665Z,6.90
2018-12-08T00:32:02.398Z,6.90
2018-12-08T00:34:41.125Z,6.80
2018-12-08T00:40:13.795Z,6.80
2018-12-08T00:42:49.595Z,6.80
2018-12-08T00:48:06.603Z,6.80
2018-12-08T00:50:46.765Z,6.80
2018-12-08T00:53:23.614Z,6.80
2018-12-08T00:55:55.646Z,6.80
2018-12-08T00:58:31.541Z,6.80
2018-12-08T01:04:00.494Z,6.70
2018-12-08T01:06:30.392Z,6.70
2018-12-08T01:09:05.361Z,6.70
2018-12-08T01:11:36.837Z,6.70
2018-12-08T01:14:14.529Z,6.70
2018-12-08T01:16:46.425Z,6.60
2018-12-08T01:19:15.758Z,6.60
2018-12-08T01:21:45.788Z,6.60
2018-12-08T01:24:14.981Z,6.50
2018-12-08T01:26:46.289Z,6.30
2018-12-08T01:29:24.673Z,6.20
2018-12-08T01:31:55.855Z,6.00
2018-12-08T01:34:32.292Z,5.80
2018-12-08T01:37:10.153Z,5.50
2018-12-08T01:39:41.452Z,5.40
2018-12-08T01:42:11.673Z,5.30
2018-12-08T01:44:46.146Z,5.30
2018-12-08T01:47:20.939Z,5.30
2018-12-08T01:49:55.842Z,5.20
2018-12-08T01:55:02.606Z,5.20
2018-12-08T01:57:36.620Z,5.20
2018-12-08T02:00:12.841Z,5.10
2018-12-08T02:02:44.381Z,5.10
2018-12-08T02:05:21.045Z,5.10
2018-12-08T02:08:07.761Z,5.20
2018-12-08T02:10:48.566Z,5.20
2018-12-08T02:13:20.665Z,5.30
2018-12-08T02:15:55.220Z,5.30
2018-12-08T02:21:27.326Z,5.50
2018-12-08T02:23:58.540Z,5.60
2018-12-08T02:26:32.394Z,5.60
2018-12-08T02:29:03.969Z,5.60
2018-12-08T02:31:35.196Z,5.60
2018-12-08T02:34:05.235Z,5.60
2018-12-08T02:36:39.785Z,5.50
2018-12-08T02:39:13.714Z,5.60
2018-12-08T02:41:43.427Z,5.50
2018-12-08T02:44:14.166Z,5.50
2018-12-08T02:46:45.877Z,5.40
2018-12-08T02:49:17.069Z,5.40
2018-12-08T02:51:59.292Z,5.30
2018-12-08T02:54:31.258Z,5.30
2018-12-08T02:57:03.172Z,5.30
2018-12-08T02:59:33.477Z,5.20
2018-12-08T03:02:03.445Z,5.20
2018-12-08T03:04:36.946Z,5.10
2018-12-08T03:07:12.033Z,5.10
2018-12-08T03:09:45.928Z,5.00
2018-12-08T03:12:24.060Z,5.00
2018-12-08T03:14:55.789Z,5.10
2018-12-08T03:20:23.548Z,5.00
2018-12-08T03:22:59.916Z,5.10
2018-12-08T03:25:32.749Z,5.00
2018-12-08T03:28:08.941Z,5.00
2018-12-08T03:30:40.631Z,4.90
2018-12-08T03:33:18.323Z,4.90
2018-12-08T03:35:50.140Z,4.90
2018-12-08T03:38:24.993Z,4.90
2018-12-08T03:40:59.851Z,4.90
2018-12-08T03:43:35.272Z,4.90
2018-12-08T03:46:06.768Z,4.90
2018-12-08T03:48:37.157Z,4.90
2018-12-08T03:51:23.511Z,4.90
2018-12-08T03:54:06.293Z,4.90
2018-12-08T03:59:13.063Z,4.90
2018-12-08T04:01:51.035Z,4.90
2018-12-08T04:04:25.097Z,4.80
2018-12-08T04:06:54.802Z,4.80
2018-12-08T04:12:31.523Z,4.80
2018-12-08T04:15:06.102Z,4.70
2018-12-08T04:17:46.959Z,4.70
2018-12-08T04:20:24.634Z,4.70
2018-12-08T04:23:00.839Z,4.60
2018-12-08T04:28:37.557Z,4.60
2018-12-08T04:31:07.348Z,4.60
2018-12-08T04:33:46.052Z,4.60
2018-12-08T04:36:17.790Z,4.60
2018-12-08T04:38:49.488Z,4.60
2018-12-08T04:41:21.648Z,4.60
2018-12-08T04:44:00.193Z,4.50
2018-12-08T04:46:34.373Z,4.50
2018-12-08T04:49:04.593Z,4.40
2018-12-08T04:51:36.748Z,4.40
2018-12-08T04:54:08.875Z,4.40
2018-12-08T04:56:47.350Z,4.40
2018-12-08T04:59:21.510Z,4.40
2018-12-08T05:01:55.704Z,4.40
2018-12-08T05:04:25.575Z,4.50
2018-12-08T05:07:12.858Z,4.40
2018-12-08T05:09:44.839Z,4.40
2018-12-08T05:12:14.889Z,4.40
2018-12-08T05:14:49.629Z,4.40
2018-12-08T05:17:19.217Z,4.40
2018-12-08T05:19:55.649Z,4.50
2018-12-08T05:22:27.379Z,4.50
2018-12-08T05:24:58.648Z,4.60
2018-12-08T05:27:32.548Z,4.60
2018-12-08T05:30:08.706Z,4.70
2018-12-08T05:32:43.539Z,4.80
2018-12-08T05:35:18.649Z,4.80
2018-12-08T05:37:50.297Z,4.80
2018-12-08T05:40:24.306Z,4.80
2018-12-08T05:42:59.294Z,4.80
2018-12-08T05:45:40.709Z,4.80
2018-12-08T05:48:10.859Z,4.80
2018-12-08T05:50:45.513Z,4.80
2018-12-08T05:56:19.024Z,4.80
2018-12-08T05:58:48.826Z,4.70
2018-12-08T06:03:58.602Z,4.60
2018-12-08T06:06:34.167Z,4.60
2018-12-08T06:09:08.137Z,4.70
2018-12-08T06:11:42.819Z,4.70
2018-12-08T06:14:14.108Z,4.70
2018-12-08T06:16:45.337Z,4.70
2018-12-08T06:19:19.661Z,4.80
2018-12-08T06:21:57.685Z,4.80
2018-12-08T06:24:29.420Z,4.80
2018-12-08T06:27:11.997Z,4.90
2018-12-08T06:29:46.705Z,4.80
2018-12-08T06:32:16.376Z,4.80
2018-12-08T06:34:57.249Z,4.90
2018-12-08T06:37:26.552Z,4.90
2018-12-08T06:40:01.220Z,4.90
2018-12-08T06:42:32.769Z,4.90
2018-12-08T06:45:02.574Z,4.90
2018-12-08T06:47:32.561Z,4.90
2018-12-08T06:50:10.228Z,4.90
2018-12-08T06:52:42.134Z,4.90
2018-12-08T06:55:14.498Z,5.00
2018-12-08T06:57:51.073Z,5.00
2018-12-08T07:00:25.200Z,4.90
2018-12-08T07:02:56.679Z,5.00
2018-12-08T07:08:00.225Z,4.90
2018-12-08T07:10:36.205Z,4.90
2018-12-08T07:13:05.770Z,5.00
2018-12-08T07:15:35.683Z,5.00
2018-12-08T07:18:07.728Z,4.90
2018-12-08T07:20:39.817Z,4.90
2018-12-08T07:23:14.265Z,4.90
2018-12-08T07:25:54.780Z,4.90
2018-12-08T07:28:30.004Z,4.90
2018-12-08T07:31:04.348Z,4.90
2018-12-08T07:33:35.823Z,5.00
2018-12-08T07:36:14.149Z,5.00
2018-12-08T07:39:04.654Z,5.00
2018-12-08T07:41:36.544Z,5.00
2018-12-08T07:44:11.125Z,5.10
2018-12-08T07:46:40.545Z,5.10
2018-12-08T07:49:16.016Z,5.20
2018-12-08T07:51:50.273Z,5.30
2018-12-08T07:54:28.189Z,5.30
2018-12-08T07:56:57.866Z,5.30
2018-12-08T07:59:34.082Z,5.30
2018-12-08T08:02:08.284Z,5.40
2018-12-08T08:04:44.274Z,5.40
2018-12-08T08:12:13.573Z,5.80
2018-12-08T08:14:52.144Z,5.80
2018-12-08T08:17:23.624Z,5.90
2018-12-08T08:19:54.005Z,5.90
2018-12-08T08:22:31.458Z,5.90
2018-12-08T08:25:10.109Z,6.00
2018-12-08T08:27:46.594Z,5.90
2018-12-08T08:30:25.145Z,5.80
2018-12-08T08:32:56.777Z,5.80
2018-12-08T08:35:26.789Z,5.80
2018-12-08T08:37:58.738Z,5.80
2018-12-08T08:40:30.758Z,5.80
2018-12-08T08:43:02.769Z,5.70
2018-12-08T08:45:40.439Z,5.70
2018-12-08T08:48:11.930Z,5.70
2018-12-08T08:50:46.421Z,5.70
2018-12-08T08:53:18.025Z,5.70
2018-12-08T08:55:58.838Z,5.80
2018-12-08T08:58:49.787Z,5.90
2018-12-08T09:01:18.121Z,5.90
2018-12-08T09:03:49.817Z,6.00
2018-12-08T09:06:30.582Z,6.20
2018-12-08T09:09:01.825Z,6.60
2018-12-08T09:11:36.439Z,6.90
2018-12-08T09:14:13.320Z,7.00
2018-12-08T09:16:44.993Z,7.20
2018-12-08T09:19:19.463Z,7.10
2018-12-08T09:21:50.874Z,7.20
2018-12-08T09:24:25.517Z,7.20
2018-12-08T09:27:03.610Z,7.10
2018-12-08T09:29:35.430Z,7.20
2018-12-08T09:32:09.921Z,7.30
2018-12-08T09:34:44.198Z,7.30
2018-12-08T09:37:18.168Z,7.50
2018-12-08T09:39:49.879Z,7.40
2018-12-08T09:42:21.861Z,7.40
2018-12-08T09:44:51.949Z,7.20
2018-12-08T09:47:22.061Z,7.10
2018-12-08T09:50:02.566Z,7.10
2018-12-08T09:52:37.425Z,7.00
2018-12-08T09:55:15.049Z,7.00
2018-12-08T10:00:47.743Z,7.10
2018-12-08T10:03:25.670Z,7.10
2018-12-08T10:05:59.910Z,6.90
2018-12-08T10:08:36.123Z,6.80
2018-12-08T10:11:14.021Z,6.80
2018-12-08T10:13:45.811Z,7.10
2018-12-08T10:16:17.769Z,7.50
2018-12-08T10:18:49.822Z,7.90
2018-12-08T10:21:20.025Z,8.50
2018-12-08T10:23:50.097Z,8.60
2018-12-08T10:26:26.620Z,8.40
2018-12-08T10:29:02.770Z,8.00
2018-12-08T10:31:34.253Z,7.70
2018-12-08T10:34:04.301Z,7.70
2018-12-08T10:36:45.115Z,7.90
2018-12-08T10:39:19.989Z,8.20
2018-12-08T10:41:51.369Z,8.70
2018-12-08T10:44:23.317Z,8.80
2018-12-08T10:46:55.540Z,9.10
2018-12-08T10:49:29.969Z,9.10
2018-12-08T10:52:16.699Z,9.10
2018-12-08T10:54:57.521Z,8.70
2018-12-08T10:57:31.977Z,8.50
2018-12-08T11:00:17.836Z,8.50
2018-12-08T11:02:54.980Z,8.40
2018-12-08T11:05:30.756Z,8.10
2018-12-08T11:08:09.085Z,7.90
2018-12-08T11:10:40.621Z,7.80
2018-12-08T11:13:16.894Z,7.70
2018-12-08T11:15:48.202Z,7.70
2018-12-08T11:18:34.555Z,7.70
2018-12-08T11:21:12.785Z,7.70
2018-12-08T11:23:47.388Z,7.70
2018-12-08T11:26:18.717Z,7.70
2018-12-08T11:29:07.151Z,7.70
2018-12-08T11:31:39.001Z,7.90
2018-12-08T11:34:17.706Z,8.10
2018-12-08T11:39:42.093Z,8.10
2018-12-08T11:42:14.380Z,7.80
2018-12-08T11:44:44.500Z,7.80
2018-12-08T11:47:16.498Z,7.70
2018-12-08T11:49:44.696Z,7.70
2018-12-08T11:52:32.195Z,7.70
2018-12-08T11:55:07.173Z,7.60
2018-12-08T11:57:45.725Z,7.60
2018-12-08T12:00:19.581Z,7.60
2018-12-08T12:02:51.717Z,7.50
2018-12-08T12:05:23.815Z,7.60
2018-12-08T12:07:53.782Z,7.50
2018-12-08T12:10:31.567Z,7.50
2018-12-08T12:13:05.566Z,7.50
2018-12-08T12:15:35.517Z,7.60
2018-12-08T12:18:07.345Z,7.60
2018-12-08T12:20:41.896Z,7.50
2018-12-08T12:23:16.175Z,7.60
2018-12-08T12:26:01.470Z,7.60
2018-12-08T12:28:35.822Z,7.60
2018-12-08T12:31:09.893Z,7.70
2018-12-08T12:33:41.926Z,7.70
2018-12-08T12:36:22.149Z,7.80
2018-12-08T12:38:54.166Z,7.90
2018-12-08T12:41:38.560Z,7.80
2018-12-08T12:44:16.809Z,7.80
2018-12-08T12:49:43.694Z,7.60
2018-12-08T12:52:26.257Z,7.60
2018-12-08T12:54:58.396Z,7.50
2018-12-08T12:57:28.842Z,7.50
2018-12-08T13:00:00.582Z,7.50
2018-12-08T13:02:33.040Z,7.40
2018-12-08T13:05:05.049Z,7.50
2018-12-08T13:07:39.336Z,7.50
2018-12-08T13:10:09.633Z,7.50
2018-12-08T13:12:45.193Z,7.60
2018-12-08T13:15:18.998Z,7.70
2018-12-08T13:17:54.256Z,8.00
2018-12-08T13:20:28.383Z,8.30
2018-12-08T13:23:00.781Z,8.40
2018-12-08T13:25:35.269Z,8.20
2018-12-08T13:28:06.797Z,8.00
2018-12-08T13:30:41.530Z,7.90
2018-12-08T13:33:16.856Z,7.70
2018-12-08T13:35:53.291Z,7.80
2018-12-08T13:38:33.450Z,7.70
2018-12-08T13:41:02.667Z,7.60
2018-12-08T13:43:34.587Z,7.50
2018-12-08T13:46:09.035Z,7.50
2018-12-08T13:48:44.076Z,7.40
2018-12-08T13:51:15.590Z,7.30
2018-12-08T13:53:47.466Z,7.30
2018-12-08T13:56:24.069Z,7.20
2018-12-08T13:58:55.574Z,7.20
2018-12-08T14:01:29.577Z,7.20
2018-12-08T14:03:59.321Z,7.10
2018-12-08T14:06:30.737Z,7.10
2018-12-08T14:09:02.621Z,7.10
2018-12-08T14:11:37.101Z,6.90
2018-12-08T14:14:08.617Z,6.70
2018-12-08T14:16:40.725Z,6.60
2018-12-08T14:19:10.713Z,6.50
2018-12-08T14:21:45.245Z,6.50
2018-12-08T14:24:16.771Z,6.30
2018-12-08T14:26:48.756Z,6.20
2018-12-08T14:29:23.100Z,6.20
2018-12-08T14:34:50.188Z,6.30
2018-12-08T14:37:21.501Z,6.30
2018-12-08T14:39:55.959Z,6.30
2018-12-08T14:42:29.938Z,6.40
2018-12-08T14:45:01.660Z,6.40
2018-12-08T14:47:38.247Z,6.40
2018-12-08T14:50:11.132Z,6.30
2018-12-08T14:55:48.251Z,6.40
2018-12-08T14:58:28.617Z,6.50
2018-12-08T15:00:57.954Z,6.40
2018-12-08T15:03:38.686Z,6.40
2018-12-08T15:06:11.093Z,6.50
2018-12-08T15:08:43.027Z,6.50
2018-12-08T15:11:15.453Z,6.50
2018-12-08T15:13:50.022Z,6.50
2018-12-08T15:16:25.246Z,6.60
2018-12-08T15:18:59.364Z,6.60
2018-12-08T15:24:40.041Z,6.50
2018-12-08T15:27:17.540Z,6.60
2018-12-08T15:32:44.493Z,6.40
2018-12-08T15:35:25.021Z,6.20
2018-12-08T15:38:01.397Z,6.20
2018-12-08T15:40:30.810Z,6.10
2018-12-08T15:43:02.754Z,6.10
2018-12-08T15:45:34.850Z,6.10
2018-12-08T15:48:15.685Z,6.10
2018-12-08T15:50:45.035Z,6.10
2018-12-08T15:53:17.207Z,6.00
2018-12-08T15:55:49.113Z,6.00
2018-12-08T15:58:20.957Z,6.00
2018-12-08T16:00:53.062Z,6.00
2018-12-08T16:03:30.196Z,6.00
2018-12-08T16:06:00.301Z,6.00
2018-12-08T16:08:34.873Z,6.00
2018-12-08T16:11:11.118Z,6.00
2018-12-08T16:16:33.781Z,6.10
2018-12-08T16:19:09.509Z,6.20
2018-12-08T16:21:38.809Z,6.20
2018-12-08T16:24:10.677Z,6.30
2018-12-08T16:26:42.771Z,6.30
2018-12-08T16:29:12.797Z,6.30
2018-12-08T16:31:45.167Z,6.40
2018-12-08T16:34:23.670Z,6.40
2018-12-08T16:37:04.225Z,6.40
2018-12-08T16:39:33.539Z,6.40
2018-12-08T16:42:03.921Z,6.40
2018-12-08T16:44:38.693Z,6.30
2018-12-08T16:52:56.443Z,6.30
2018-12-08T16:55:34.565Z,6.30
2018-12-08T16:58:06.257Z,6.40
2018-12-08T17:00:38.213Z,6.50
2018-12-08T17:03:10.267Z,6.50
2018-12-08T17:05:45.084Z,6.60
2018-12-08T17:08:16.776Z,6.60
2018-12-08T17:10:51.240Z,6.60
2018-12-08T17:13:22.729Z,6.60
2018-12-08T17:15:54.898Z,6.60
2018-12-08T17:18:35.806Z,6.70
2018-12-08T17:21:10.788Z,6.70
2018-12-08T17:23:44.891Z,6.70
2018-12-08T17:26:23.064Z,6.70
2018-12-08T17:28:57.338Z,6.70
2018-12-08T17:31:28.877Z,6.80
2018-12-08T17:34:03.326Z,6.80
2018-12-08T17:36:37.520Z,6.80
2018-12-08T17:39:09.549Z,6.80
2018-12-08T17:41:41.545Z,6.90
2018-12-08T17:44:17.925Z,6.90
2018-12-08T17:46:51.986Z,6.90
2018-12-08T17:49:26.146Z,6.90
2018-12-08T17:51:57.694Z,6.90
2018-12-08T17:57:32.588Z,6.80
2018-12-08T18:00:06.711Z,6.90
2018-12-08T18:05:31.061Z,6.90
2018-12-08T18:08:05.298Z,6.90
2018-12-08T18:10:37.139Z,6.90
2018-12-08T18:13:08.481Z,6.80
2018-12-08T18:15:49.236Z,6.80
2018-12-08T18:18:20.934Z,6.80
2018-12-08T18:20:59.741Z,6.80
2018-12-08T18:23:32.151Z,6.80
2018-12-08T18:26:12.942Z,6.80
2018-12-08T18:28:46.677Z,6.70
2018-12-08T18:31:22.820Z,6.80
2018-12-08T18:34:00.895Z,6.80
2018-12-08T18:36:37.132Z,6.80
2018-12-08T18:39:11.049Z,6.80
2018-12-08T18:41:49.138Z,6.80
2018-12-08T18:44:29.671Z,6.90
2018-12-08T18:47:06.665Z,6.90
2018-12-08T18:49:40.805Z,6.90
2018-12-08T18:52:16.825Z,7.00
2018-12-08T18:54:48.329Z,6.90
2018-12-08T18:57:22.262Z,7.00
2018-12-08T19:00:00.102Z,6.90
2018-12-08T19:02:31.681Z,6.90
2018-12-08T19:05:09.659Z,7.00
2018-12-08T19:07:48.327Z,7.00
2018-12-08T19:10:20.401Z,6.90
2018-12-08T19:12:56.645Z,6.90
2018-12-08T19:15:32.033Z,6.90
2018-12-08T19:18:03.761Z,6.90
2018-12-08T19:20:40.314Z,6.80
2018-12-08T19:23:14.005Z,6.80
2018-12-08T19:25:48.490Z,6.80
2018-12-08T19:28:22.557Z,6.90
2018-12-08T19:31:03.312Z,6.80
2018-12-08T19:33:37.958Z,6.80
2018-12-08T19:36:12.341Z,6.80
2018-12-08T19:38:43.801Z,6.80
2018-12-08T19:41:26.832Z,6.90
2018-12-08T19:43:57.033Z,6.80
2018-12-08T19:46:32.539Z,6.90
2018-12-08T19:49:04.110Z,6.90
2018-12-08T19:51:38.605Z,6.90
2018-12-08T19:54:08.025Z,7.00
2018-12-08T19:56:40.070Z,7.00
2018-12-08T19:59:11.441Z,7.00
2018-12-08T20:01:43.537Z,7.10
2018-12-08T20:04:14.889Z,7.10
2018-12-08T20:06:47.050Z,7.10
2018-12-08T20:09:34.124Z,7.10
2018-12-08T20:12:10.345Z,7.20
2018-12-08T20:14:40.150Z,7.10
2018-12-08T20:17:09.820Z,7.10
2018-12-08T20:19:41.802Z,7.10
2018-12-08T20:22:17.981Z,7.10
2018-12-08T20:24:56.099Z,7.10
2018-12-08T20:27:27.942Z,7.10
2018-12-08T20:29:57.972Z,7.10
2018-12-08T20:32:29.683Z,7.10
2018-12-08T20:35:01.690Z,7.10
2018-12-08T20:37:33.083Z,7.10
2018-12-08T20:40:10.513Z,7.10
2018-12-08T20:42:40.461Z,7.10
2018-12-08T20:45:11.838Z,7.20
2018-12-08T20:47:44.216Z,7.20
2018-12-08T20:50:16.197Z,7.20
2018-12-08T20:52:51.805Z,7.20
2018-12-08T20:55:27.525Z,7.20
2018-12-08T20:57:59.585Z,7.20
2018-12-08T21:00:31.527Z,7.30
2018-12-08T21:03:01.751Z,7.30
2018-12-08T21:05:36.227Z,7.30
2018-12-08T21:08:16.641Z,7.20
2018-12-08T21:10:48.692Z,7.30
2018-12-08T21:13:23.527Z,7.30
2018-12-08T21:16:02.275Z,7.30
2018-12-08T21:18:51.050Z,7.20
2018-12-08T21:21:28.293Z,7.20
2018-12-08T21:26:57.963Z,7.20
2018-12-08T21:29:32.802Z,7.20
2018-12-08T21:35:07.300Z,7.20
2018-12-08T21:47:52.245Z,7.30
2018-12-08T21:50:30.767Z,7.40
2018-12-08T21:53:05.205Z,7.40
2018-12-08T21:58:46.250Z,7.30
2018-12-08T22:01:24.349Z,7.30
2018-12-08T22:03:58.793Z,7.30
2018-12-08T22:06:30.193Z,7.30
2018-12-08T22:09:00.318Z,7.30
2018-12-08T22:11:34.808Z,7.30
2018-12-08T22:14:11.765Z,7.30
2018-12-08T22:16:46.799Z,7.40
2018-12-08T22:19:24.556Z,7.40
2018-12-08T22:22:09.508Z,7.50
2018-12-08T22:24:41.777Z,7.50
2018-12-08T22:27:19.578Z,7.40
2018-12-08T22:30:00.260Z,7.50
2018-12-08T22:35:24.991Z,7.40
2018-12-08T22:37:57.371Z,7.30
2018-12-08T22:40:29.886Z,7.10
2018-12-08T22:43:01.643Z,7.10
2018-12-08T22:45:35.949Z,7.00
2018-12-08T22:48:07.946Z,7.00
2018-12-08T22:50:46.985Z,7.00
2018-12-08T22:53:16.308Z,6.90
2018-12-08T22:55:53.257Z,6.90
2018-12-08T22:58:30.004Z,6.90
2018-12-08T23:01:02.382Z,6.90
2018-12-08T23:03:32.013Z,6.90
2018-12-08T23:06:09.250Z,7.00
2018-12-08T23:08:39.374Z,7.00
2018-12-08T23:11:10.600Z,7.10
2018-12-08T23:13:42.814Z,7.10
2018-12-08T23:16:15.204Z,7.10
2018-12-08T23:18:51.630Z,7.10
2018-12-08T23:21:29.733Z,7.10
2018-12-08T23:23:59.259Z,7.20
2018-12-08T23:26:31.049Z,7.20
2018-12-08T23:29:03.059Z,7.30
2018-12-08T23:31:32.995Z,7.30
2018-12-08T23:34:05.526Z,7.30
2018-12-08T23:36:37.075Z,7.30
2018-12-08T23:39:10.326Z,7.30
2018-12-08T23:41:42.613Z,7.30
2018-12-08T23:44:20.885Z,7.30
2018-12-08T23:46:53.029Z,7.30
2018-12-08T23:49:27.148Z,7.40
2018-12-08T23:52:01.065Z,7.50
2018-12-08T23:54:32.930Z,7.50
2018-12-08T23:57:07.456Z,7.50
2018-12-08T23:59:50.039Z,7.50
